Time;durP1;ratioP1;P1;durP2;ratioP2;P2;SDS_P1;SDS_P2;PMS_P1;PMS_P2;Temp;Humidity;BMP_temperature;BMP_pressure;BME280_temperature;BME280_humidity;BME280_pressure;Samples;Min_cycle;Max_cycle;Signal;HPM_P1;HPM_P2
2021/09/06 00:01:17;;;;;;;7.33;3.50;;;;;;;12.81;100.00;102080.47;5029646;28;20052;-69
2021/09/06 00:03:42;;;;;;;8.03;4.47;;;;;;;12.84;100.00;102068.63;5046774;28;20037;-69
2021/09/06 00:06:08;;;;;;;10.52;3.92;;;;;;;12.86;100.00;102064.78;5046677;28;20475;-69
2021/09/06 00:08:33;;;;;;;8.47;3.77;;;;;;;12.86;100.00;102059.44;5028287;28;20040;-69
2021/09/06 00:11:07;;;;;;;7.80;4.33;;;;;;;12.86;100.00;102055.91;5029414;28;20048;-69
2021/09/06 00:13:33;;;;;;;8.93;3.92;;;;;;;12.83;100.00;102056.19;5046845;28;20033;-69
2021/09/06 00:15:59;;;;;;;7.32;3.63;;;;;;;12.82;100.00;102057.19;5046739;28;20024;-69
2021/09/06 00:18:25;;;;;;;6.28;3.95;;;;;;;12.81;100.00;102048.31;5012435;28;20040;-69
2021/09/06 00:20:52;;;;;;;8.77;5.03;;;;;;;12.76;100.00;102045.22;5029425;28;20068;-69
2021/09/06 00:23:17;;;;;;;10.02;4.85;;;;;;;12.73;100.00;102050.00;5012583;28;20440;-69
2021/09/06 00:25:43;;;;;;;10.77;4.40;;;;;;;12.63;100.00;102040.16;5046944;28;20025;-69
2021/09/06 00:28:09;;;;;;;5.37;3.50;;;;;;;12.58;100.00;102037.06;5012339;28;20554;-69
2021/09/06 00:30:34;;;;;;;6.28;3.95;;;;;;;12.51;100.00;102030.59;5029315;28;20025;-69
2021/09/06 00:33:00;;;;;;;8.32;4.22;;;;;;;12.40;100.00;102033.44;5029269;28;20277;-69
2021/09/06 00:35:25;;;;;;;6.13;3.77;;;;;;;12.32;100.00;102036.00;5032339;28;20033;-69
2021/09/06 00:37:50;;;;;;;7.80;4.30;;;;;;;12.40;100.00;102036.97;5033045;28;20039;-69
2021/09/06 00:40:17;;;;;;;6.95;4.05;;;;;;;12.47;100.00;102039.91;5032595;28;20375;-69
2021/09/06 00:42:42;;;;;;;9.47;5.03;;;;;;;12.46;100.00;102036.41;5070254;22;20095;-85
2021/09/06 00:45:09;;;;;;;9.98;4.70;;;;;;;12.35;100.00;102030.34;5035808;28;20110;-84
2021/09/06 00:47:36;;;;;;;8.05;4.38;;;;;;;12.26;100.00;102026.69;5025137;28;20071;-85
2021/09/06 00:50:06;;;;;;;8.68;4.57;;;;;;;12.18;100.00;102024.72;5034717;28;20025;-85
2021/09/06 00:52:33;;;;;;;7.38;3.83;;;;;;;12.11;100.00;102033.47;5027141;28;20033;-85
2021/09/06 00:54:59;;;;;;;9.80;4.18;;;;;;;11.99;100.00;102030.09;5037311;28;20056;-85
2021/09/06 00:57:26;;;;;;;10.00;4.20;;;;;;;12.01;100.00;102034.31;5037410;28;20033;-85
2021/09/06 00:59:52;;;;;;;8.73;4.10;;;;;;;11.96;100.00;102025.88;5036653;28;20120;-85
2021/09/06 01:02:19;;;;;;;10.85;3.70;;;;;;;11.95;100.00;102029.50;5037931;28;20022;-86
2021/09/06 01:04:47;;;;;;;7.65;4.30;;;;;;;11.84;100.00;102035.81;5036727;28;20033;-85
2021/09/06 01:07:28;;;;;;;8.70;3.47;;;;;;;11.76;100.00;102029.47;5032433;28;20514;-85
2021/09/06 01:10:23;;;;;;;5.57;3.33;;;;;;;11.67;100.00;102041.00;5032152;28;20093;-85
2021/09/06 01:13:07;;;;;;;7.80;3.88;;;;;;;11.58;100.00;102026.63;5036007;28;20062;-85
2021/09/06 01:15:32;;;;;;;7.30;3.27;;;;;;;11.53;100.00;102018.16;5019164;28;20037;-85
2021/09/06 01:17:59;;;;;;;6.65;3.65;;;;;;;11.43;100.00;102023.50;5018732;28;20264;-87
2021/09/06 01:20:27;;;;;;;6.90;3.38;;;;;;;11.41;100.00;102028.13;5018392;28;20120;-84
2021/09/06 01:22:57;;;;;;;5.97;3.45;;;;;;;11.40;100.00;102029.97;5034615;28;20103;-86
2021/09/06 01:25:36;;;;;;;9.10;3.70;;;;;;;11.38;100.00;102023.06;5019669;28;20113;-85
2021/09/06 01:28:02;;;;;;;5.53;3.00;;;;;;;11.36;100.00;102020.53;5034226;28;20498;-85
2021/09/06 01:30:27;;;;;;;7.18;3.65;;;;;;;11.25;100.00;102020.63;5017709;28;20041;-85
2021/09/06 01:32:53;;;;;;;7.80;3.80;;;;;;;11.29;100.00;102027.41;5017534;28;20422;-85
2021/09/06 01:35:19;;;;;;;7.50;3.88;;;;;;;11.21;100.00;102024.53;5017135;28;20104;-85
2021/09/06 01:37:51;;;;;;;9.60;3.25;;;;;;;11.23;100.00;102022.59;5033637;28;20078;-85
2021/09/06 01:40:18;;;;;;;8.60;3.63;;;;;;;11.14;100.00;102026.06;5016957;28;20113;-86
2021/09/06 01:42:44;;;;;;;7.00;4.00;;;;;;;11.12;100.00;102020.00;5016631;28;20033;-85
2021/09/06 01:45:10;;;;;;;6.20;3.00;;;;;;;11.09;100.00;102020.28;5016615;28;20116;-81
2021/09/06 01:47:35;;;;;;;5.07;3.17;;;;;;;11.05;100.00;102019.72;5016618;28;20141;-84
2021/09/06 01:50:02;;;;;;;4.60;2.60;;;;;;;11.00;100.00;102011.25;5017222;28;20478;-82
2021/09/06 01:52:37;;;;;;;6.00;3.42;;;;;;;10.93;100.00;102010.97;5018235;28;20042;-82
2021/09/06 01:55:04;;;;;;;7.80;4.82;;;;;;;11.02;100.00;102019.13;5017671;28;20034;-82
2021/09/06 01:57:33;;;;;;;6.78;3.33;;;;;;;10.89;100.00;102012.19;5017271;28;20026;-82
2021/09/06 01:59:58;;;;;;;7.97;3.63;;;;;;;10.78;100.00;102013.13;5016361;28;20037;-82
2021/09/06 02:02:26;;;;;;;2.90;2.45;;;;;;;10.74;100.00;102016.19;5033138;28;20163;-82
2021/09/06 02:04:51;;;;;;;5.47;3.27;;;;;;;10.73;100.00;102004.66;5016683;28;20394;-82
2021/09/06 02:07:18;;;;;;;5.10;2.72;;;;;;;10.74;100.00;102017.03;5033504;28;20049;-82
2021/09/06 02:09:45;;;;;;;6.15;3.15;;;;;;;10.70;100.00;102009.41;5032575;28;20506;-82
2021/09/06 02:12:13;;;;;;;4.50;2.85;;;;;;;10.66;100.00;102014.19;5017235;28;20029;-82
2021/09/06 02:14:42;;;;;;;8.90;3.33;;;;;;;10.65;100.00;102009.84;5017109;28;20029;-82
2021/09/06 02:17:08;;;;;;;7.45;3.20;;;;;;;10.65;100.00;102012.50;5016453;28;20403;-82
2021/09/06 02:19:36;;;;;;;8.57;3.67;;;;;;;10.65;100.00;102023.19;5032580;28;20553;-83
2021/09/06 02:22:02;;;;;;;8.18;3.65;;;;;;;10.65;100.00;102016.97;5016378;28;20057;-85
2021/09/06 02:24:32;;;;;;;5.30;3.50;;;;;;;10.60;100.00;102029.88;5016862;28;20105;-82
2021/09/06 02:27:03;;;;;;;4.20;3.17;;;;;;;10.56;100.00;102032.00;5016840;28;20048;-82
2021/09/06 02:29:31;;;;;;;6.78;3.15;;;;;;;10.57;100.00;102029.16;5015768;28;20137;-82
2021/09/06 02:32:11;;;;;;;8.77;3.50;;;;;;;10.53;100.00;102018.88;5018172;28;20033;-82
2021/09/06 02:35:03;;;;;;;6.15;3.20;;;;;;;10.50;100.00;102025.31;5029012;28;20044;-84
2021/09/06 02:37:30;;;;;;;5.63;3.70;;;;;;;10.50;100.00;102030.66;5031685;28;20506;-82
2021/09/06 02:39:55;;;;;;;8.95;3.13;;;;;;;10.52;100.00;102036.72;5013577;28;20031;-83
2021/09/06 02:42:22;;;;;;;5.53;2.72;;;;;;;10.40;100.00;102023.59;5030669;28;20061;-82
2021/09/06 02:44:47;;;;;;;6.57;3.90;;;;;;;10.36;100.00;102023.00;5013801;28;20077;-83
2021/09/06 02:47:13;;;;;;;5.50;3.67;;;;;;;10.40;100.00;102031.59;5013610;28;20061;-83
2021/09/06 02:49:38;;;;;;;7.28;3.22;;;;;;;10.29;100.00;102019.16;5013534;28;20036;-84
2021/09/06 02:52:07;;;;;;;8.95;3.78;;;;;;;10.27;100.00;102016.56;5013975;28;20040;-84
2021/09/06 02:54:33;;;;;;;5.53;3.60;;;;;;;10.27;100.00;102023.72;5013563;28;20116;-83
2021/09/06 02:56:58;;;;;;;6.47;3.73;;;;;;;10.29;100.00;102021.81;5013505;28;20029;-83
2021/09/06 02:59:23;;;;;;;5.57;3.17;;;;;;;10.24;100.00;102011.50;5013416;28;20021;-83
2021/09/06 03:01:49;;;;;;;9.82;4.45;;;;;;;10.19;100.00;102013.72;5013984;28;20275;-83
2021/09/06 03:04:15;;;;;;;10.77;4.87;;;;;;;10.17;100.00;102009.47;5013400;28;20081;-82
2021/09/06 03:06:40;;;;;;;8.53;4.33;;;;;;;10.14;100.00;102005.25;5013328;28;20434;-83
2021/09/06 03:09:08;;;;;;;4.68;3.47;;;;;;;10.07;100.00;102001.41;5013285;28;20045;-83
2021/09/06 03:11:33;;;;;;;9.97;4.23;;;;;;;10.06;100.00;102005.03;5013375;28;20026;-84
2021/09/06 03:13:59;;;;;;;5.93;3.42;;;;;;;10.00;100.00;101995.72;5013563;28;20032;-83
2021/09/06 03:16:25;;;;;;;7.10;3.70;;;;;;;10.00;100.00;102003.72;5013074;28;20033;-81
2021/09/06 03:18:53;;;;;;;8.45;4.30;;;;;;;9.98;100.00;102003.00;5013208;28;20033;-82
2021/09/06 03:21:27;;;;;;;11.48;5.28;;;;;;;10.01;100.00;102013.41;5029619;28;20076;-84
2021/09/06 03:23:54;;;;;;;7.93;4.22;;;;;;;9.97;100.00;102013.78;5013940;28;20061;-83
2021/09/06 03:26:22;;;;;;;9.65;4.55;;;;;;;9.96;100.00;102012.97;5014257;28;20030;-83
2021/09/06 03:28:47;;;;;;;9.85;4.65;;;;;;;9.92;100.00;102009.69;5038708;22;20026;-71
2021/09/06 03:31:15;;;;;;;9.63;5.45;;;;;;;9.91;100.00;102000.00;5010605;28;20190;-71
2021/09/06 03:33:40;;;;;;;9.43;4.72;;;;;;;9.94;100.00;102005.06;5011141;28;20017;-71
2021/09/06 03:36:06;;;;;;;6.73;4.67;;;;;;;9.93;100.00;101998.06;5011152;28;20152;-71
2021/09/06 03:38:33;;;;;;;7.97;4.13;;;;;;;9.88;100.00;101992.25;5028175;28;20265;-71
2021/09/06 03:40:59;;;;;;;10.75;4.53;;;;;;;9.85;100.00;101984.50;5011434;28;20053;-71
2021/09/06 03:43:25;;;;;;;6.53;4.43;;;;;;;9.82;100.00;101990.09;5010886;28;20436;-71
2021/09/06 03:45:51;;;;;;;8.37;4.23;;;;;;;9.81;100.00;101990.22;4994641;28;20049;-71
2021/09/06 03:48:16;;;;;;;8.60;4.87;;;;;;;9.79;100.00;101984.19;5010610;28;20064;-71
2021/09/06 03:50:44;;;;;;;7.40;4.03;;;;;;;9.73;100.00;101977.50;5027626;28;20037;-71
2021/09/06 03:53:11;;;;;;;9.65;6.55;;;;;;;9.68;100.00;101969.91;5011147;28;20079;-71
2021/09/06 03:55:37;;;;;;;;;;;;;;;9.73;100.00;101974.84;5027569;28;20060;-71
2021/09/06 03:58:05;;;;;;;9.15;5.50;;;;;;;9.67;100.00;101973.56;5010725;28;20015;-71
2021/09/06 04:00:30;;;;;;;7.93;4.73;;;;;;;9.61;100.00;101975.88;4994638;28;20127;-71
2021/09/06 04:02:56;;;;;;;9.40;5.30;;;;;;;9.59;100.00;101980.47;5027411;28;20033;-71
2021/09/06 04:05:25;;;;;;;9.98;4.97;;;;;;;9.59;100.00;101978.66;5010746;28;20369;-71
2021/09/06 04:07:52;;;;;;;12.45;6.32;;;;;;;9.66;100.00;101985.16;5011305;28;20029;-71
2021/09/06 04:10:19;;;;;;;13.82;7.35;;;;;;;9.73;100.00;101983.69;5016732;28;20476;-69
2021/09/06 04:12:45;;;;;;;7.75;5.13;;;;;;;9.58;100.00;101984.97;5017617;28;20033;-69
2021/09/06 04:15:12;;;;;;;9.10;4.70;;;;;;;9.49;100.00;101983.06;5072225;22;20111;-68
2021/09/06 04:17:37;;;;;;;9.55;5.18;;;;;;;9.47;100.00;101987.66;5074493;22;20192;-69
2021/09/06 04:20:05;;;;;;;10.70;5.15;;;;;;;9.45;100.00;101989.59;5040121;23;20547;-69
2021/09/06 04:22:32;;;;;;;8.48;4.60;;;;;;;9.44;100.00;101990.59;5056143;22;20048;-68
2021/09/06 04:25:00;;;;;;;10.38;4.85;;;;;;;9.41;100.00;101988.16;5033978;28;20041;-69
2021/09/06 04:27:25;;;;;;;9.60;5.47;;;;;;;9.44;100.00;101998.59;5033953;28;20119;-69
2021/09/06 04:29:51;;;;;;;11.15;6.28;;;;;;;9.48;100.00;101998.22;5045791;28;20115;-69
2021/09/06 04:32:16;;;;;;;16.87;8.43;;;;;;;9.60;100.00;102000.81;5009227;28;20033;-69
2021/09/06 04:34:42;;;;;;;19.67;11.40;;;;;;;9.52;100.00;102004.13;5012928;28;20021;-69
2021/09/06 04:37:07;;;;;;;17.97;10.03;;;;;;;9.51;100.00;102007.78;5026968;28;20028;-69
2021/09/06 04:39:37;;;;;;;14.65;7.55;;;;;;;9.61;100.00;102010.53;5035620;28;20075;-69
2021/09/06 04:42:04;;;;;;;13.85;8.35;;;;;;;9.69;100.00;102010.75;5035881;28;20502;-69
2021/09/06 04:44:29;;;;;;;11.97;7.93;;;;;;;9.76;100.00;102019.09;5035887;28;20036;-69
2021/09/06 04:46:56;;;;;;;11.73;7.03;;;;;;;9.81;100.00;102011.53;5035849;28;20041;-69
2021/09/06 04:49:21;;;;;;;;;;;;;;;9.84;100.00;102020.16;5036285;28;20033;-69
2021/09/06 04:51:46;;;;;;;;;;;;;;;9.83;100.00;102021.16;5036116;28;19908;-69
2021/09/06 04:54:16;;;;;;;20.02;8.65;;;;;;;9.86;100.00;102025.38;5035958;28;19947;-69
2021/09/06 04:56:43;;;;;;;26.33;11.63;;;;;;;10.02;100.00;102023.13;5019769;28;20029;-69
2021/09/06 04:59:09;;;;;;;27.23;14.77;;;;;;;9.93;100.00;102021.22;5019322;28;20102;-69
2021/09/06 05:01:35;;;;;;;24.37;13.50;;;;;;;9.94;100.00;102025.56;5036146;28;20041;-69
2021/09/06 05:04:01;;;;;;;26.33;12.90;;;;;;;9.91;100.00;102015.16;5035814;28;20056;-69
2021/09/06 05:06:26;;;;;;;77.25;14.45;;;;;;;9.98;100.00;102027.03;5035818;28;20067;-69
2021/09/06 05:08:52;;;;;;;60.53;12.50;;;;;;;10.04;100.00;102023.81;5029571;28;20107;-69
2021/09/06 05:11:17;;;;;;;28.67;12.17;;;;;;;10.15;100.00;102026.44;5018515;28;20033;-69
2021/09/06 05:13:43;;;;;;;118.93;15.82;;;;;;;10.17;100.00;102026.34;5026576;28;20036;-69
2021/09/06 05:16:10;;;;;;;49.95;13.77;;;;;;;10.14;100.00;102022.09;5031377;28;20033;-69
2021/09/06 05:18:35;;;;;;;23.70;11.70;;;;;;;10.27;100.00;102026.41;5027908;28;20366;-69
2021/09/06 05:21:02;;;;;;;50.77;13.87;;;;;;;10.42;100.00;102026.94;5031095;28;20119;-69
2021/09/06 05:23:28;;;;;;;58.28;13.45;;;;;;;10.51;100.00;102032.38;5031053;28;20033;-69
2021/09/06 05:25:54;;;;;;;115.68;15.30;;;;;;;10.59;100.00;102030.88;5023369;28;20036;-69
2021/09/06 05:28:21;;;;;;;97.88;17.73;;;;;;;10.65;100.00;102022.31;5033535;28;20516;-69
2021/09/06 05:30:48;;;;;;;82.00;15.18;;;;;;;10.84;100.00;102034.94;5033346;28;20037;-69
2021/09/06 05:33:13;;;;;;;21.27;12.70;;;;;;;11.01;100.00;102041.50;5033722;28;20040;-69
2021/09/06 05:35:39;;;;;;;24.17;14.97;;;;;;;11.15;100.00;102027.78;5026002;28;20048;-69
2021/09/06 05:38:04;;;;;;;128.73;16.83;;;;;;;11.24;100.00;102034.13;5013478;28;20094;-68
2021/09/06 05:40:52;;;;;;;22.17;10.85;;;;;;;11.28;100.00;102031.03;5030797;28;20355;-69
2021/09/06 05:43:18;;;;;;;21.08;11.48;;;;;;;11.45;100.00;102028.69;5013550;28;20034;-69
2021/09/06 05:45:44;;;;;;;89.57;15.50;;;;;;;11.55;100.00;102041.13;5013118;28;20432;-69
2021/09/06 05:48:09;;;;;;;146.17;18.37;;;;;;;11.59;100.00;102033.69;5030400;28;20041;-69
2021/09/06 05:50:36;;;;;;;83.85;15.00;;;;;;;11.70;100.00;102041.56;5018306;28;20430;-69
2021/09/06 05:53:19;;;;;;;210.40;19.45;;;;;;;11.73;100.00;102046.66;5051008;28;20102;-69
2021/09/06 05:55:45;;;;;;;245.63;20.20;;;;;;;11.81;100.00;102045.94;5032606;28;20041;-69
2021/09/06 05:58:13;;;;;;;263.20;19.50;;;;;;;11.87;100.00;102044.53;5032583;28;20037;-69
2021/09/06 06:00:38;;;;;;;20.30;9.63;;;;;;;12.24;100.00;102039.38;5031380;28;20552;-69
2021/09/06 06:03:03;;;;;;;99.60;13.57;;;;;;;12.48;100.00;102041.63;5049600;28;20021;-69
2021/09/06 06:05:29;;;;;;;84.33;13.23;;;;;;;12.67;100.00;102046.94;5015117;28;20098;-69
2021/09/06 06:07:54;;;;;;;44.90;10.20;;;;;;;12.65;100.00;102043.56;5032419;28;20041;-69
2021/09/06 06:10:20;;;;;;;19.93;8.73;;;;;;;12.76;100.00;102044.34;5016077;28;20506;-69
2021/09/06 06:12:45;;;;;;;15.55;9.68;;;;;;;12.86;100.00;102046.03;5032000;28;20029;-69
2021/09/06 06:15:12;;;;;;;29.23;11.68;;;;;;;12.96;100.00;102051.34;5031332;28;20056;-69
2021/09/06 06:17:39;;;;;;;48.50;13.00;;;;;;;13.13;100.00;102047.06;5031165;28;20056;-69
2021/09/06 06:20:06;;;;;;;50.35;14.52;;;;;;;13.27;100.00;102053.78;5014949;28;20075;-69
2021/09/06 06:22:51;;;;;;;;;;;;;;;13.47;100.00;102049.19;5049073;28;20037;-69
2021/09/06 06:25:37;;;;;;;20.02;11.23;;;;;;;13.56;100.00;102056.34;5048335;28;19970;-70
2021/09/06 06:28:10;;;;;;;11.57;7.50;;;;;;;13.71;100.00;102046.78;5048182;28;20037;-70
2021/09/06 06:30:35;;;;;;;40.28;13.40;;;;;;;13.35;100.00;102040.50;5031257;28;20043;-70
2021/09/06 06:33:03;;;;;;;25.35;12.95;;;;;;;13.66;100.00;102049.06;5030714;28;20056;-69
2021/09/06 06:35:34;;;;;;;22.77;13.40;;;;;;;13.77;100.00;102050.72;5031223;28;20442;-69
2021/09/06 06:37:59;;;;;;;24.67;12.57;;;;;;;14.05;100.00;102043.44;5030824;28;20500;-69
2021/09/06 06:40:25;;;;;;;18.33;12.27;;;;;;;14.15;100.00;102044.19;5030998;28;20329;-69
2021/09/06 06:42:56;;;;;;;15.45;10.10;;;;;;;14.40;100.00;102052.47;5030779;28;20025;-70
2021/09/06 06:45:22;;;;;;;18.48;11.80;;;;;;;14.06;100.00;102041.59;5014542;28;20033;-69
2021/09/06 06:47:48;;;;;;;22.30;9.95;;;;;;;14.20;100.00;102057.16;5047940;28;20722;-69
2021/09/06 06:50:14;;;;;;;21.23;10.80;;;;;;;14.47;100.00;102058.03;5048764;28;20365;-70
2021/09/06 06:52:39;;;;;;;11.67;8.57;;;;;;;14.82;100.00;102056.28;5014575;28;20086;-69
2021/09/06 06:55:06;;;;;;;;;;;;;;;15.02;98.66;102049.69;5030732;28;20029;-69
2021/09/06 06:57:31;;;;;;;;;;;;;;;14.70;97.15;102053.91;5014481;28;20343;-69
2021/09/06 06:59:56;;;;;;;14.30;9.70;;;;;;;14.89;98.74;102054.66;5013487;28;20352;-69
2021/09/06 07:02:22;;;;;;;15.90;8.87;;;;;;;15.34;96.66;102045.50;5048001;28;20063;-69
2021/09/06 07:04:47;;;;;;;10.53;6.90;;;;;;;15.71;94.45;102046.97;5013605;28;20343;-69
2021/09/06 07:07:13;;;;;;;11.43;8.20;;;;;;;15.87;92.66;102051.53;4994321;23;20495;-71
2021/09/06 07:09:38;;;;;;;10.10;6.30;;;;;;;16.32;91.21;102044.84;5080160;23;20049;-69
2021/09/06 07:12:04;;;;;;;11.40;7.43;;;;;;;16.28;87.54;102057.81;5058114;23;20029;-70
2021/09/06 07:14:32;;;;;;;9.10;6.70;;;;;;;16.66;87.63;102053.56;5045946;23;20033;-83
2021/09/06 07:16:57;;;;;;;12.67;8.73;;;;;;;16.53;86.90;102038.94;5014585;28;20047;-84
2021/09/06 07:19:24;;;;;;;12.90;6.47;;;;;;;17.10;84.33;102044.22;5016282;28;21084;-84
2021/09/06 07:21:50;;;;;;;10.85;5.53;;;;;;;17.58;83.44;102039.63;5018045;28;20040;-83
2021/09/06 07:24:15;;;;;;;6.80;5.13;;;;;;;18.06;81.01;102047.63;5019815;28;20029;-83
2021/09/06 07:26:41;;;;;;;7.13;5.27;;;;;;;18.04;79.15;102047.78;5035846;28;20037;-85
2021/09/06 07:29:06;;;;;;;8.93;5.87;;;;;;;18.09;79.48;102044.56;5015997;28;20470;-84
2021/09/06 07:31:32;;;;;;;6.88;4.70;;;;;;;17.76;82.15;102052.03;4999891;28;20029;-83
2021/09/06 07:33:59;;;;;;;6.03;5.05;;;;;;;17.87;81.47;102048.94;5012860;28;20048;-88
2021/09/06 07:36:26;;;;;;;8.20;5.55;;;;;;;18.26;78.61;102053.38;5017879;28;20523;-83
2021/09/06 07:38:52;;;;;;;7.87;4.97;;;;;;;18.29;79.59;102045.75;5018808;28;20029;-83
2021/09/06 07:41:18;;;;;;;13.00;4.38;;;;;;;18.81;75.21;102043.28;5019015;28;20029;-84
2021/09/06 07:43:46;;;;;;;;;;;;;;;19.06;75.24;102052.78;5035206;28;20505;-84
2021/09/06 07:46:13;;;;;;;7.90;3.95;;;;;;;18.83;76.52;102055.59;5018650;28;20373;-84
2021/09/06 07:48:39;;;;;;;6.00;3.88;;;;;;;18.79;76.25;102051.56;5034966;28;20068;-84
2021/09/06 07:51:05;;;;;;;5.13;3.27;;;;;;;19.52;73.53;102041.69;5018749;28;20502;-85
2021/09/06 07:53:30;;;;;;;8.98;4.20;;;;;;;19.31;73.11;102055.19;5018065;28;20111;-83
2021/09/06 07:55:57;;;;;;;5.15;3.50;;;;;;;19.71;73.50;102061.13;5018433;28;20047;-84
2021/09/06 07:58:25;;;;;;;5.03;3.97;;;;;;;20.04;71.99;102058.75;5034664;28;20021;-82
2021/09/06 08:00:51;;;;;;;8.60;5.60;;;;;;;19.87;70.92;102060.06;5018718;28;20500;-84
2021/09/06 08:03:16;;;;;;;6.53;3.57;;;;;;;19.54;72.11;102044.22;5035640;28;20083;-84
2021/09/06 08:05:42;;;;;;;11.88;4.95;;;;;;;19.51;72.71;102064.41;5018667;28;20029;-83
2021/09/06 08:08:11;;;;;;;8.73;4.00;;;;;;;19.39;74.74;102068.66;5034525;28;20036;-84
2021/09/06 08:10:38;;;;;;;8.23;3.60;;;;;;;20.43;70.37;102065.59;5035333;28;20036;-85
2021/09/06 08:13:04;;;;;;;7.47;3.63;;;;;;;20.46;70.32;102065.19;5036177;28;20782;-84
2021/09/06 08:15:31;;;;;;;5.70;3.17;;;;;;;21.14;66.45;102067.34;5018910;28;20067;-82
2021/09/06 08:18:00;;;;;;;6.38;3.33;;;;;;;21.02;67.73;102058.94;5035969;28;20051;-83
2021/09/06 08:20:26;;;;;;;;;;;;;;;21.08;67.24;102074.44;5034319;28;20470;-83
2021/09/06 08:22:52;;;;;;;5.80;3.03;;;;;;;21.45;65.16;102077.78;5035986;28;19916;-84
2021/09/06 08:25:18;;;;;;;7.97;3.22;;;;;;;21.60;66.12;102081.19;5037359;28;20117;-84
2021/09/06 08:27:44;;;;;;;;;;;;;;;20.07;70.92;102081.97;5038372;28;20101;-85
2021/09/06 08:30:12;;;;;;;8.05;4.20;;;;;;;20.08;69.44;102068.19;5037156;28;19919;-85
2021/09/06 08:32:39;;;;;;;8.43;4.25;;;;;;;19.62;72.55;102076.63;5037662;28;20043;-84
2021/09/06 08:35:04;;;;;;;;;;;;;;;19.65;73.57;102080.84;5036616;28;20029;-84
2021/09/06 08:37:30;;;;;;;;;;;;;;;20.61;68.67;102073.28;5040638;28;19931;-84
2021/09/06 08:39:55;;;;;;;4.47;3.00;;;;;;;21.57;66.72;102084.31;5037878;28;19912;-85
2021/09/06 08:42:21;;;;;;;6.38;3.75;;;;;;;21.70;65.93;102078.94;5021761;28;20091;-84
2021/09/06 08:44:46;;;;;;;9.43;4.17;;;;;;;21.30;67.22;102075.16;5017715;28;20025;-84
2021/09/06 08:47:16;;;;;;;6.70;3.35;;;;;;;20.79;69.38;102080.91;5001159;28;20033;-83
2021/09/06 08:49:44;;;;;;;6.50;3.33;;;;;;;20.75;69.42;102082.38;5000997;28;20047;-82
2021/09/06 08:52:09;;;;;;;7.15;3.15;;;;;;;21.43;67.25;102088.03;5005581;28;20036;-84
2021/09/06 08:54:35;;;;;;;3.90;2.53;;;;;;;22.10;66.22;102075.44;5012822;28;20032;-83
2021/09/06 08:57:00;;;;;;;6.63;3.10;;;;;;;22.92;63.45;102081.53;5023109;28;20445;-83
2021/09/06 08:59:25;;;;;;;4.70;2.97;;;;;;;23.50;61.29;102078.03;5022524;28;20029;-84
2021/09/06 09:02:02;;;;;;;5.82;3.05;;;;;;;23.67;60.10;102078.38;5039132;28;20792;-84
2021/09/06 09:05:17;;;;;;;6.60;3.10;;;;;;;23.78;58.61;102070.38;5029195;28;20049;-85
2021/09/06 09:08:05;;;;;;;8.05;3.20;;;;;;;24.57;58.43;102070.88;5042298;28;20070;-88
2021/09/06 09:10:45;;;;;;;5.93;3.00;;;;;;;23.89;58.95;102081.66;5005425;28;20056;-84
2021/09/06 09:13:40;;;;;;;7.43;3.00;;;;;;;23.06;60.53;102076.94;5036155;28;20047;-84
2021/09/06 09:16:54;;;;;;;;;;;;;;;21.81;64.89;102080.19;4976405;28;20145;-85
2021/09/06 09:19:33;;;;;;;7.95;3.70;;;;;;;20.70;67.78;102082.09;4944742;28;20371;-84
2021/09/06 09:22:31;;;;;;;6.18;3.22;;;;;;;21.84;65.60;102068.06;5012700;28;20056;-83
2021/09/06 09:25:17;;;;;;;4.15;3.00;;;;;;;22.28;62.67;102074.88;5008454;28;20061;-85
2021/09/06 09:28:03;;;;;;;6.70;3.38;;;;;;;23.13;59.31;102066.84;5042736;28;20573;-87
2021/09/06 09:30:39;;;;;;;9.07;3.47;;;;;;;23.69;58.37;102070.81;5045873;22;20052;-71
2021/09/06 09:33:16;;;;;;;8.00;4.00;;;;;;;22.32;60.44;102066.09;5049190;28;20037;-71
2021/09/06 09:36:27;;;;;;;7.43;3.08;;;;;;;22.85;59.76;102061.66;5031854;28;20048;-71
2021/09/06 09:39:03;;;;;;;5.68;3.38;;;;;;;23.37;55.51;102060.69;5031196;28;20104;-71
2021/09/06 09:41:28;;;;;;;6.05;3.28;;;;;;;22.73;58.64;102067.75;5048385;28;20029;-69
2021/09/06 09:44:16;;;;;;;5.70;3.25;;;;;;;23.01;56.51;102058.50;5027037;22;20080;-69
2021/09/06 09:47:00;;;;;;;6.43;3.30;;;;;;;22.56;58.17;102061.06;4992253;28;20041;-69
2021/09/06 09:49:28;;;;;;;7.50;3.50;;;;;;;20.29;59.93;102063.81;4992073;28;20045;-70
2021/09/06 09:51:56;;;;;;;7.57;3.30;;;;;;;19.88;63.15;102067.13;4992520;28;20053;-70
2021/09/06 09:54:21;;;;;;;5.43;3.05;;;;;;;21.30;62.45;102064.31;4992454;28;20037;-70
2021/09/06 09:56:48;;;;;;;7.50;4.10;;;;;;;22.00;57.41;102064.97;4993410;28;20026;-70
2021/09/06 09:59:17;;;;;;;5.32;3.00;;;;;;;22.81;58.21;102068.59;4993259;28;20042;-70
2021/09/06 10:02:11;;;;;;;9.63;4.72;;;;;;;23.09;58.14;102057.44;5010350;28;20029;-70
2021/09/06 10:04:43;;;;;;;6.97;4.63;;;;;;;23.03;59.16;102066.47;4993213;28;20116;-70
2021/09/06 10:07:11;;;;;;;5.15;3.63;;;;;;;22.23;62.84;102067.34;4992342;28;20034;-70
2021/09/06 10:09:44;;;;;;;8.10;4.50;;;;;;;23.48;59.38;102071.97;4993083;28;20076;-70
2021/09/06 10:12:18;;;;;;;7.20;4.13;;;;;;;23.36;58.77;102071.81;5010198;28;20037;-70
2021/09/06 10:15:01;;;;;;;6.53;4.40;;;;;;;22.67;60.12;102070.50;4993096;28;20618;-70
2021/09/06 10:17:36;;;;;;;7.75;3.72;;;;;;;22.12;64.39;102071.50;4992818;28;20034;-70
2021/09/06 10:20:23;;;;;;;7.25;4.35;;;;;;;22.55;63.46;102075.72;4976712;28;20034;-70
2021/09/06 10:23:07;;;;;;;6.40;3.30;;;;;;;23.02;61.64;102067.53;5009948;28;20034;-71
2021/09/06 10:25:36;;;;;;;8.82;3.30;;;;;;;22.41;61.52;102063.19;5009427;28;20405;-71
2021/09/06 10:28:04;;;;;;;7.20;2.75;;;;;;;23.04;60.02;102063.53;5008558;28;20067;-71
2021/09/06 10:33:06;;;;;;;5.68;4.03;;;;;;;24.22;56.46;102052.25;5049404;23;20852;-71
2021/09/06 10:38:12;;;;;;;4.88;3.35;;;;;;;22.79;60.72;102035.28;5006573;28;20471;-87
2021/09/06 10:40:41;;;;;;;11.77;4.13;;;;;;;23.06;59.21;102031.50;4994270;28;20038;-85
2021/09/06 10:43:19;;;;;;;6.20;3.60;;;;;;;23.42;59.19;102032.78;4995752;28;20034;-86
2021/09/06 10:45:50;;;;;;;4.10;3.10;;;;;;;23.70;57.70;102037.88;5011910;28;20615;-84
2021/09/06 10:48:24;;;;;;;8.45;3.70;;;;;;;23.97;57.45;102008.56;5012135;28;20037;-86
2021/09/06 10:50:53;;;;;;;7.75;3.53;;;;;;;23.09;59.31;101992.91;4996286;28;20076;-85
2021/09/06 10:53:22;;;;;;;7.63;3.70;;;;;;;24.52;56.38;102040.69;5010349;28;20022;-85
2021/09/06 10:55:55;;;;;;;8.13;4.22;;;;;;;24.69;55.76;102040.94;5027158;28;20061;-86
2021/09/06 10:58:23;;;;;;;5.35;3.65;;;;;;;23.35;57.42;102002.03;4994406;28;20128;-86
2021/09/06 11:00:59;;;;;;;7.32;4.20;;;;;;;22.68;60.62;101999.47;5010583;28;20026;-85
2021/09/06 11:03:34;;;;;;;8.88;4.43;;;;;;;23.32;57.96;102018.78;5010107;28;20040;-85
2021/09/06 11:06:00;;;;;;;8.02;3.78;;;;;;;23.38;57.94;101993.41;5011852;28;20126;-84
2021/09/06 11:08:33;;;;;;;9.60;4.10;;;;;;;23.75;55.22;101983.56;5005308;28;20026;-86
2021/09/06 11:11:02;;;;;;;8.73;4.35;;;;;;;22.07;60.49;102032.34;5008051;28;20088;-85
2021/09/06 11:13:47;;;;;;;7.28;4.07;;;;;;;23.35;58.54;102034.72;5009103;28;20034;-83
2021/09/06 11:16:18;;;;;;;8.38;4.00;;;;;;;23.71;56.95;102008.72;5008556;28;20030;-85
2021/09/06 11:18:51;;;;;;;5.68;4.00;;;;;;;23.85;56.06;101995.88;5006412;28;20033;-81
2021/09/06 11:21:21;;;;;;;7.43;4.15;;;;;;;23.22;57.86;102015.69;5006166;28;20037;-85
2021/09/06 11:23:50;;;;;;;7.22;4.90;;;;;;;22.13;60.61;102018.78;5007038;28;20990;-84
2021/09/06 11:26:28;;;;;;;8.50;4.55;;;;;;;22.41;60.11;102004.16;5006492;28;20069;-84
2021/09/06 11:28:55;;;;;;;6.45;4.13;;;;;;;22.93;59.47;102024.16;5006893;28;20082;-86
2021/09/06 11:31:24;;;;;;;8.88;4.70;;;;;;;23.40;56.97;102034.91;4990332;28;20026;-85
2021/09/06 11:34:09;;;;;;;;;;;;;;;22.09;61.36;102033.81;4992458;28;20041;-85
2021/09/06 11:36:35;;;;;;;6.57;3.95;;;;;;;22.91;60.32;102003.63;5006437;28;19957;-85